createdAt,value
2019-05-26T00:00:23.357Z,13.92
2019-05-26T00:01:03.976Z,13.92
2019-05-26T00:01:44.559Z,13.87
2019-05-26T00:02:25.148Z,13.89
2019-05-26T00:03:05.700Z,13.93
2019-05-26T00:03:46.272Z,13.93
2019-05-26T00:04:26.821Z,13.92
2019-05-26T00:05:07.408Z,13.97
2019-05-26T00:05:47.998Z,13.86
2019-05-26T00:06:28.573Z,13.89
2019-05-26T00:07:09.162Z,13.92
2019-05-26T00:07:49.730Z,13.83
2019-05-26T00:08:30.274Z,13.92
2019-05-26T00:09:10.889Z,13.87
2019-05-26T00:09:51.461Z,13.95
2019-05-26T00:10:32.030Z,13.89
2019-05-26T00:11:12.568Z,13.92
2019-05-26T00:11:53.152Z,13.87
2019-05-26T00:12:33.700Z,13.85
2019-05-26T00:13:14.272Z,13.93
2019-05-26T00:13:54.876Z,13.9
2019-05-26T00:14:35.436Z,13.83
2019-05-26T00:15:16.019Z,13.83
2019-05-26T00:15:56.581Z,13.87
2019-05-26T00:16:37.145Z,13.85
2019-05-26T00:17:17.711Z,13.77
2019-05-26T00:17:58.262Z,13.79
2019-05-26T00:18:38.827Z,13.85
2019-05-26T00:19:19.395Z,13.79
2019-05-26T00:20:00.189Z,13.79
2019-05-26T00:20:40.828Z,13.75
2019-05-26T00:21:21.396Z,13.83
2019-05-26T00:22:01.950Z,13.75
2019-05-26T00:22:42.679Z,13.68
2019-05-26T00:23:23.257Z,13.78
2019-05-26T00:24:03.835Z,13.74
2019-05-26T00:24:44.484Z,13.77
2019-05-26T00:25:25.053Z,13.71
2019-05-26T00:26:05.684Z,13.74
2019-05-26T00:26:46.225Z,13.75
2019-05-26T00:27:26.810Z,13.71
2019-05-26T00:28:07.354Z,13.65
2019-05-26T00:28:47.904Z,13.59
2019-05-26T00:29:28.480Z,13.67
2019-05-26T00:30:09.055Z,13.6
2019-05-26T00:30:49.638Z,13.65
2019-05-26T00:31:30.232Z,13.65
2019-05-26T00:32:10.831Z,13.57
2019-05-26T00:32:51.417Z,13.59
2019-05-26T00:33:31.960Z,13.62
2019-05-26T00:34:12.571Z,13.53
2019-05-26T00:34:53.149Z,13.53
2019-05-26T00:35:33.749Z,13.6
2019-05-26T00:36:14.304Z,13.49
2019-05-26T00:36:54.890Z,13.52
2019-05-26T00:37:48.125Z,13.47
2019-05-26T00:38:16.002Z,13.44
2019-05-26T00:38:56.589Z,13.5
2019-05-26T00:39:37.224Z,13.44
2019-05-26T00:40:17.799Z,13.49
2019-05-26T00:40:58.370Z,13.52
2019-05-26T00:41:38.938Z,13.5
2019-05-26T00:42:19.520Z,13.49
2019-05-26T00:43:00.052Z,13.47
2019-05-26T00:43:40.656Z,13.52
2019-05-26T00:44:21.228Z,13.47
2019-05-26T00:45:01.782Z,13.47
2019-05-26T00:45:42.364Z,13.52
2019-05-26T00:46:22.924Z,13.54
2019-05-26T00:47:03.491Z,13.5
2019-05-26T00:47:44.059Z,13.46
2019-05-26T00:48:24.600Z,13.53
2019-05-26T00:49:05.178Z,13.49
2019-05-26T00:49:45.719Z,13.52
2019-05-26T00:50:26.289Z,13.53
2019-05-26T00:51:06.845Z,13.44
2019-05-26T00:51:47.423Z,13.39
2019-05-26T00:52:27.984Z,13.41
2019-05-26T00:53:08.573Z,13.39
2019-05-26T00:53:49.161Z,13.38
2019-05-26T00:54:29.744Z,13.39
2019-05-26T00:55:10.328Z,13.39
2019-05-26T00:55:50.876Z,13.37
2019-05-26T00:56:31.461Z,13.38
2019-05-26T00:57:12.030Z,13.44
2019-05-26T00:57:52.693Z,13.33
2019-05-26T00:58:33.167Z,13.44
2019-05-26T01:00:46.007Z,13.33
2019-05-26T01:01:26.538Z,13.35
2019-05-26T01:02:07.117Z,13.38
2019-05-26T01:02:47.680Z,13.35
2019-05-26T01:03:28.235Z,13.41
2019-05-26T01:04:08.806Z,13.38
2019-05-26T01:04:49.369Z,13.31
2019-05-26T01:05:29.931Z,13.35
2019-05-26T01:06:10.496Z,13.35
2019-05-26T01:06:51.118Z,13.37
2019-05-26T01:07:31.671Z,13.38
2019-05-26T01:08:12.225Z,13.39
2019-05-26T01:08:52.792Z,13.31
2019-05-26T01:09:33.383Z,13.38
2019-05-26T01:10:13.938Z,13.38
2019-05-26T01:10:54.481Z,13.38
2019-05-26T01:11:35.040Z,13.37
2019-05-26T01:12:15.600Z,13.38
2019-05-26T01:12:56.209Z,13.35
2019-05-26T01:13:36.789Z,13.28
2019-05-26T01:14:17.352Z,13.39
2019-05-26T01:14:57.906Z,13.31
2019-05-26T01:15:38.471Z,13.35
2019-05-26T01:16:19.066Z,13.33
2019-05-26T01:16:59.610Z,13.31
2019-05-26T01:17:40.187Z,13.33
2019-05-26T01:18:20.782Z,13.28
2019-05-26T01:19:01.374Z,13.23
2019-05-26T01:19:42.390Z,13.3
2019-05-26T01:20:22.950Z,13.22
2019-05-26T01:21:03.517Z,13.23
2019-05-26T01:21:44.079Z,13.16
2019-05-26T01:22:24.660Z,13.19
2019-05-26T01:23:05.225Z,13.23
2019-05-26T01:23:45.810Z,13.13
2019-05-26T01:24:26.367Z,13.15
2019-05-26T01:25:06.933Z,13.28
2019-05-26T01:25:47.497Z,13.27
2019-05-26T01:26:28.092Z,13.22
2019-05-26T01:27:08.688Z,13.19
2019-05-26T01:27:49.563Z,13.11
2019-05-26T01:28:30.108Z,13.09
2019-05-26T01:29:10.647Z,13.11
2019-05-26T01:29:51.264Z,13.04
2019-05-26T01:30:31.867Z,13.13
2019-05-26T01:31:12.464Z,13.05
2019-05-26T01:31:53.005Z,13.12
2019-05-26T01:32:33.574Z,13.11
2019-05-26T01:33:14.141Z,13.03
2019-05-26T01:33:54.714Z,13.08
2019-05-26T01:34:35.260Z,13.05
2019-05-26T01:35:15.826Z,13.05
2019-05-26T01:35:56.396Z,13.04
2019-05-26T01:36:36.974Z,13.03
2019-05-26T01:37:17.525Z,13.03
2019-05-26T01:37:58.069Z,13.01
2019-05-26T01:38:38.682Z,13.03
2019-05-26T01:39:19.215Z,13.03
2019-05-26T01:39:59.772Z,12.98
2019-05-26T01:40:40.343Z,12.95
2019-05-26T01:41:20.899Z,13.03
2019-05-26T01:42:01.479Z,12.94
2019-05-26T01:42:42.056Z,12.9
2019-05-26T01:43:22.608Z,12.94
2019-05-26T01:44:03.192Z,12.91
2019-05-26T01:44:43.750Z,12.93
2019-05-26T01:45:24.328Z,12.98
2019-05-26T01:46:04.901Z,12.82
2019-05-26T01:46:45.468Z,12.82
2019-05-26T01:47:26.030Z,12.93
2019-05-26T01:48:06.600Z,12.94
2019-05-26T01:48:47.174Z,12.95
2019-05-26T01:49:27.799Z,12.91
2019-05-26T01:50:08.450Z,12.95
2019-05-26T01:50:49.027Z,12.79
2019-05-26T01:51:29.623Z,12.94
2019-05-26T01:52:10.211Z,12.9
2019-05-26T01:52:50.794Z,12.82
2019-05-26T01:53:31.352Z,12.85
2019-05-26T01:54:11.933Z,12.85
2019-05-26T01:54:52.476Z,12.83
2019-05-26T01:55:33.036Z,12.85
2019-05-26T01:56:13.583Z,12.85
2019-05-26T01:56:54.159Z,12.83
2019-05-26T01:57:34.727Z,12.85
2019-05-26T01:58:15.296Z,12.83
2019-05-26T01:58:55.863Z,12.82
2019-05-26T01:59:36.432Z,12.8
2019-05-26T02:00:16.998Z,12.82
2019-05-26T02:00:57.553Z,12.83
2019-05-26T02:01:38.102Z,12.8
2019-05-26T02:02:18.647Z,12.82
2019-05-26T02:02:59.211Z,12.82
2019-05-26T02:03:39.769Z,12.86
2019-05-26T02:04:20.335Z,12.86
2019-05-26T02:05:00.921Z,12.82
2019-05-26T02:05:41.486Z,12.82
2019-05-26T02:06:22.081Z,12.85
2019-05-26T02:07:02.660Z,12.83
2019-05-26T02:07:43.213Z,12.83
2019-05-26T02:08:38.240Z,12.83
2019-05-26T02:09:04.316Z,12.7
2019-05-26T02:09:44.881Z,12.73
2019-05-26T02:10:25.442Z,12.75
2019-05-26T02:11:06.012Z,12.68
2019-05-26T02:11:46.588Z,12.79
2019-05-26T02:12:27.154Z,12.8
2019-05-26T02:13:07.711Z,12.73
2019-05-26T02:13:48.263Z,12.76
2019-05-26T02:14:28.841Z,12.78
2019-05-26T02:15:09.469Z,12.68
2019-05-26T02:15:50.029Z,12.75
2019-05-26T02:16:30.618Z,12.73
2019-05-26T02:17:11.166Z,12.65
2019-05-26T02:17:51.737Z,12.64
2019-05-26T02:18:32.291Z,12.61
2019-05-26T02:19:12.851Z,12.54
2019-05-26T02:19:53.440Z,12.67
2019-05-26T02:20:34.051Z,12.6
2019-05-26T02:23:32.858Z,12.65
2019-05-26T02:24:13.411Z,12.6
2019-05-26T02:24:53.968Z,12.54
2019-05-26T02:25:34.533Z,12.68
2019-05-26T02:26:15.134Z,12.6
2019-05-26T02:26:55.684Z,12.54
2019-05-26T02:27:36.511Z,12.57
2019-05-26T02:28:17.100Z,12.57
2019-05-26T02:28:57.683Z,12.54
2019-05-26T02:29:38.236Z,12.54
2019-05-26T02:30:18.808Z,12.68
2019-05-26T02:30:59.373Z,12.61
2019-05-26T02:31:39.938Z,12.53
2019-05-26T02:32:20.502Z,12.64
2019-05-26T02:33:01.042Z,12.61
2019-05-26T02:33:41.601Z,12.62
2019-05-26T02:34:22.186Z,12.55
2019-05-26T02:35:02.744Z,12.58
2019-05-26T02:35:43.315Z,12.53
2019-05-26T02:36:23.882Z,12.55
2019-05-26T02:37:04.428Z,12.6
2019-05-26T02:37:45.015Z,12.54
2019-05-26T02:38:26.404Z,12.55
2019-05-26T02:39:06.141Z,12.49
2019-05-26T02:39:46.707Z,12.45
2019-05-26T02:40:27.289Z,12.47
2019-05-26T02:41:07.810Z,12.46
2019-05-26T02:41:48.375Z,12.49
2019-05-26T02:42:28.955Z,12.49
2019-05-26T02:43:09.541Z,12.45
2019-05-26T02:43:50.149Z,12.49
2019-05-26T02:44:30.738Z,12.5
2019-05-26T02:45:11.306Z,12.5
2019-05-26T02:45:51.862Z,12.49
2019-05-26T02:46:32.433Z,12.5
2019-05-26T02:49:32.280Z,12.46
2019-05-26T02:50:12.838Z,12.45
2019-05-26T02:50:53.399Z,12.46
2019-05-26T02:51:33.957Z,12.45
2019-05-26T02:52:14.574Z,12.37
2019-05-26T02:52:55.113Z,12.45
2019-05-26T02:53:35.662Z,12.43
2019-05-26T02:54:16.265Z,12.35
2019-05-26T02:54:56.834Z,12.39
2019-05-26T02:55:37.397Z,12.39
2019-05-26T02:56:17.953Z,12.35
2019-05-26T02:56:58.508Z,12.39
2019-05-26T02:57:39.063Z,12.36
2019-05-26T02:58:19.660Z,12.35
2019-05-26T02:59:00.252Z,12.39
2019-05-26T02:59:40.839Z,12.29
2019-05-26T03:00:21.392Z,12.32
2019-05-26T03:01:01.967Z,12.31
2019-05-26T03:02:00.742Z,12.28
2019-05-26T03:02:23.101Z,12.31
2019-05-26T03:03:03.672Z,12.27
2019-05-26T03:03:44.232Z,12.27
2019-05-26T03:04:24.801Z,12.31
2019-05-26T03:05:05.379Z,12.29
2019-05-26T03:05:45.950Z,12.37
2019-05-26T03:06:26.507Z,12.29
2019-05-26T03:07:07.067Z,12.27
2019-05-26T03:07:47.638Z,12.27
2019-05-26T03:08:28.185Z,12.32
2019-05-26T03:09:21.547Z,12.36
2019-05-26T03:09:49.312Z,12.35
2019-05-26T03:10:29.871Z,12.35
2019-05-26T03:11:10.450Z,12.36
2019-05-26T03:11:51.019Z,12.31
2019-05-26T03:12:31.578Z,12.35
2019-05-26T03:13:12.132Z,12.31
2019-05-26T03:13:52.685Z,12.31
2019-05-26T03:14:33.246Z,12.24
2019-05-26T03:15:13.806Z,12.35
2019-05-26T03:15:54.344Z,12.31
2019-05-26T03:16:34.907Z,12.35
2019-05-26T03:17:15.469Z,12.36
2019-05-26T03:17:56.035Z,12.35
2019-05-26T03:18:36.589Z,12.29
2019-05-26T03:19:17.229Z,12.35
2019-05-26T03:19:57.736Z,12.31
2019-05-26T03:20:38.298Z,12.31
2019-05-26T03:21:18.843Z,12.24
2019-05-26T03:21:59.476Z,12.32
2019-05-26T03:22:40.037Z,12.21
2019-05-26T03:23:20.620Z,12.21
2019-05-26T03:24:01.182Z,12.22
2019-05-26T03:24:41.724Z,12.27
2019-05-26T03:25:22.274Z,12.17
2019-05-26T03:26:02.843Z,12.18
2019-05-26T03:26:43.439Z,12.22
2019-05-26T03:27:23.959Z,12.24
2019-05-26T03:28:04.859Z,12.22
2019-05-26T03:28:45.494Z,12.28
2019-05-26T03:29:26.053Z,12.32
2019-05-26T03:30:06.625Z,12.37
2019-05-26T03:30:47.189Z,12.21
2019-05-26T03:31:27.736Z,12.25
2019-05-26T03:32:08.311Z,12.27
2019-05-26T03:32:48.900Z,12.29
2019-05-26T03:33:29.417Z,12.29
2019-05-26T03:34:09.970Z,12.28
2019-05-26T03:34:50.557Z,12.32
2019-05-26T03:35:31.114Z,12.36
2019-05-26T03:36:11.672Z,12.24
2019-05-26T03:36:52.240Z,12.31
2019-05-26T03:37:32.834Z,12.25
2019-05-26T03:38:13.395Z,12.28
2019-05-26T03:38:53.971Z,12.28
2019-05-26T03:39:44.119Z,12.24
2019-05-26T03:40:15.072Z,12.27
2019-05-26T03:40:55.637Z,12.22
2019-05-26T03:41:36.189Z,12.18
2019-05-26T03:42:16.750Z,12.2
2019-05-26T03:42:57.371Z,12.18
2019-05-26T03:43:37.917Z,12.28
2019-05-26T03:44:18.446Z,12.28
2019-05-26T03:44:59.006Z,12.21
2019-05-26T03:45:39.574Z,12.24
2019-05-26T03:46:20.216Z,12.22
2019-05-26T03:47:00.709Z,12.32
2019-05-26T03:47:41.275Z,12.29
2019-05-26T03:48:21.833Z,12.31
2019-05-26T03:49:02.405Z,12.31
2019-05-26T03:49:42.963Z,12.35
2019-05-26T03:50:23.527Z,12.35
2019-05-26T03:51:04.088Z,12.25
2019-05-26T03:51:44.670Z,12.31
2019-05-26T03:52:25.230Z,12.31
2019-05-26T03:53:05.790Z,12.39
2019-05-26T03:53:46.356Z,12.36
2019-05-26T03:54:26.928Z,12.39
2019-05-26T03:55:07.481Z,12.4
2019-05-26T03:55:48.046Z,12.42
2019-05-26T03:56:28.629Z,12.29
2019-05-26T03:57:09.179Z,12.37
2019-05-26T03:57:49.758Z,12.39
2019-05-26T03:58:30.326Z,12.39
2019-05-26T03:59:10.886Z,12.35
2019-05-26T03:59:51.459Z,12.42
2019-05-26T04:00:32.019Z,12.39
2019-05-26T04:01:12.583Z,12.35
2019-05-26T04:01:57.422Z,12.37
2019-05-26T04:02:33.695Z,12.35
2019-05-26T04:03:14.240Z,12.39
2019-05-26T04:03:54.797Z,12.37
2019-05-26T04:04:35.368Z,12.43
2019-05-26T04:05:15.934Z,12.39
2019-05-26T04:05:56.541Z,12.46
2019-05-26T04:06:37.120Z,12.47
2019-05-26T04:07:17.661Z,12.4
2019-05-26T04:07:58.232Z,12.42
2019-05-26T04:08:38.791Z,12.39
2019-05-26T04:09:19.361Z,12.39
2019-05-26T04:10:04.981Z,12.45
2019-05-26T04:10:40.477Z,12.45
2019-05-26T04:11:21.046Z,12.46
2019-05-26T04:12:01.615Z,12.43
2019-05-26T04:12:42.171Z,12.49
2019-05-26T04:13:22.739Z,12.45
2019-05-26T04:14:03.314Z,12.47
2019-05-26T04:14:43.874Z,12.47
2019-05-26T04:15:24.451Z,12.54
2019-05-26T04:16:05.012Z,12.47
2019-05-26T04:16:45.586Z,12.55
2019-05-26T04:17:26.141Z,12.54
2019-05-26T04:18:06.686Z,12.54
2019-05-26T04:18:47.239Z,12.58
2019-05-26T04:19:27.784Z,12.57
2019-05-26T04:20:08.355Z,12.5
2019-05-26T04:20:48.934Z,12.57
2019-05-26T04:21:29.501Z,12.6
2019-05-26T04:22:10.061Z,12.55
2019-05-26T04:22:50.635Z,12.6
2019-05-26T04:23:31.185Z,12.6
2019-05-26T04:24:11.749Z,12.61
2019-05-26T04:24:52.314Z,12.62
2019-05-26T04:25:32.873Z,12.73
2019-05-26T04:26:13.451Z,12.7
2019-05-26T04:26:54.074Z,12.76
2019-05-26T04:27:34.625Z,12.73
2019-05-26T04:28:15.192Z,12.72
2019-05-26T04:28:55.746Z,12.73
2019-05-26T04:29:36.314Z,12.72
2019-05-26T04:30:16.874Z,12.72
2019-05-26T04:30:57.419Z,12.75
2019-05-26T04:31:37.989Z,12.73
2019-05-26T04:32:18.566Z,12.72
2019-05-26T04:32:59.137Z,12.85
2019-05-26T04:33:39.709Z,12.76
2019-05-26T04:34:20.294Z,12.83
2019-05-26T04:35:00.968Z,12.86
2019-05-26T04:35:41.536Z,12.82
2019-05-26T04:36:22.096Z,12.82
2019-05-26T04:37:02.645Z,12.82
2019-05-26T04:37:43.305Z,12.97
2019-05-26T04:38:23.776Z,12.87
2019-05-26T04:39:04.360Z,12.94
2019-05-26T04:39:44.926Z,12.98
2019-05-26T04:40:27.439Z,12.94
2019-05-26T04:41:06.035Z,12.95
2019-05-26T04:41:46.604Z,12.95
2019-05-26T04:42:27.166Z,12.98
2019-05-26T04:43:07.755Z,12.95
2019-05-26T04:43:48.324Z,12.91
2019-05-26T04:44:28.897Z,12.98
2019-05-26T04:45:09.461Z,13.03
2019-05-26T04:45:50.018Z,12.95
2019-05-26T04:46:30.584Z,13.01
2019-05-26T04:47:11.171Z,12.98
2019-05-26T04:47:51.739Z,13.01
2019-05-26T04:48:32.304Z,13.04
2019-05-26T04:49:12.853Z,13.04
2019-05-26T04:49:53.403Z,13.01
2019-05-26T04:50:33.993Z,13.03
2019-05-26T04:51:14.569Z,13.04
2019-05-26T04:51:55.136Z,13.09
2019-05-26T04:52:35.687Z,13.08
2019-05-26T04:53:16.256Z,13.08
2019-05-26T04:53:56.812Z,13.18
2019-05-26T04:54:37.382Z,13.15
2019-05-26T04:55:17.938Z,13.08
2019-05-26T04:55:58.537Z,13.15
2019-05-26T04:56:39.098Z,13.18
2019-05-26T04:57:19.639Z,13.12
2019-05-26T04:58:00.226Z,13.28
2019-05-26T04:58:40.780Z,13.2
2019-05-26T04:59:21.361Z,13.23
2019-05-26T05:00:01.925Z,13.2
2019-05-26T05:00:42.496Z,13.22
2019-05-26T05:01:23.093Z,13.3
2019-05-26T05:02:03.644Z,13.23
2019-05-26T05:02:44.187Z,13.22
2019-05-26T05:03:24.756Z,13.31
2019-05-26T05:04:05.311Z,13.3
2019-05-26T05:04:45.873Z,13.31
2019-05-26T05:05:26.457Z,13.44
2019-05-26T05:06:07.019Z,13.38
2019-05-26T05:06:47.589Z,13.35
2019-05-26T05:07:28.737Z,13.38
2019-05-26T05:08:08.769Z,13.39
2019-05-26T05:08:49.332Z,13.38
2019-05-26T05:09:29.884Z,13.44
2019-05-26T05:10:10.453Z,13.39
2019-05-26T05:10:51.024Z,13.33
2019-05-26T05:11:31.605Z,13.46
2019-05-26T05:12:12.164Z,13.42
2019-05-26T05:12:52.860Z,13.33
2019-05-26T05:13:33.443Z,13.37
2019-05-26T05:14:14.004Z,13.37
2019-05-26T05:14:54.565Z,13.37
2019-05-26T05:15:35.148Z,13.38
2019-05-26T05:16:15.695Z,13.39
2019-05-26T05:16:56.256Z,13.37
2019-05-26T05:17:36.815Z,13.39
2019-05-26T05:18:17.366Z,13.38
2019-05-26T05:18:57.916Z,13.37
2019-05-26T05:19:38.501Z,13.31
2019-05-26T05:20:19.075Z,13.38
2019-05-26T05:20:59.646Z,13.37
2019-05-26T05:21:40.229Z,13.35
2019-05-26T05:22:20.783Z,13.41
2019-05-26T05:23:01.356Z,13.42
2019-05-26T05:23:41.912Z,13.33
2019-05-26T05:24:22.458Z,13.39
2019-05-26T05:25:03.036Z,13.47
2019-05-26T05:25:43.569Z,13.5
2019-05-26T05:26:24.143Z,13.5
2019-05-26T05:27:04.693Z,13.56
2019-05-26T05:27:45.247Z,13.56
2019-05-26T05:28:25.815Z,13.7
2019-05-26T05:29:06.405Z,13.72
2019-05-26T05:29:47.002Z,13.81
2019-05-26T05:30:27.564Z,13.87
2019-05-26T05:31:08.126Z,13.9
2019-05-26T05:31:48.698Z,13.93
2019-05-26T05:32:32.585Z,14.07
2019-05-26T05:33:09.856Z,14.17
2019-05-26T05:33:50.429Z,14.22
2019-05-26T05:34:30.994Z,14.35
2019-05-26T05:35:11.557Z,14.35
2019-05-26T05:35:52.139Z,14.36
2019-05-26T05:36:32.704Z,14.59
2019-05-26T05:37:13.304Z,14.45
2019-05-26T05:37:53.878Z,14.53
2019-05-26T05:38:34.445Z,14.59
2019-05-26T05:39:15.006Z,14.69
2019-05-26T05:39:55.574Z,14.72
2019-05-26T05:40:36.190Z,14.73
2019-05-26T05:41:16.761Z,14.89
2019-05-26T05:41:57.338Z,14.97
2019-05-26T05:42:37.907Z,15.03
2019-05-26T05:43:18.475Z,15.04
2019-05-26T05:43:59.024Z,15.11
2019-05-26T05:44:39.615Z,15.1
2019-05-26T05:45:20.168Z,15.09
2019-05-26T05:46:00.732Z,15.11
2019-05-26T05:46:41.308Z,15.07
2019-05-26T05:47:21.880Z,15.06
2019-05-26T05:48:02.484Z,15.15
2019-05-26T05:48:43.052Z,15.14
2019-05-26T05:49:23.603Z,15.11
2019-05-26T05:50:04.168Z,15.11
2019-05-26T05:50:44.727Z,15.19
2019-05-26T05:51:25.322Z,15.22
2019-05-26T05:52:05.875Z,15.22
2019-05-26T05:52:46.445Z,15.19
2019-05-26T05:53:27.060Z,15.24
2019-05-26T05:54:07.630Z,15.29
2019-05-26T05:54:48.189Z,15.24
2019-05-26T05:55:28.753Z,15.21
2019-05-26T05:56:09.329Z,15.29
2019-05-26T05:56:49.886Z,15.33
2019-05-26T05:57:30.458Z,15.24
2019-05-26T05:58:11.055Z,15.39
2019-05-26T05:58:51.648Z,15.39
2019-05-26T05:59:32.215Z,15.43
2019-05-26T06:00:12.848Z,15.44
2019-05-26T06:00:53.368Z,15.51
2019-05-26T06:01:33.936Z,15.58
2019-05-26T06:02:14.513Z,15.59
2019-05-26T06:02:55.090Z,15.61
2019-05-26T06:03:35.693Z,15.68
2019-05-26T06:04:16.258Z,15.7
2019-05-26T06:04:56.842Z,15.75
2019-05-26T06:05:37.423Z,15.79
2019-05-26T06:06:17.987Z,15.73
2019-05-26T06:06:58.547Z,15.8
2019-05-26T06:07:39.115Z,15.79
2019-05-26T06:08:19.694Z,15.8
2019-05-26T06:09:00.319Z,15.77
2019-05-26T06:09:40.934Z,15.84
2019-05-26T06:10:21.497Z,15.77
2019-05-26T06:11:15.211Z,15.84
2019-05-26T06:11:42.673Z,15.83
2019-05-26T06:12:23.245Z,15.88
2019-05-26T06:13:03.826Z,15.94
2019-05-26T06:13:44.394Z,15.88
2019-05-26T06:14:24.971Z,15.98
2019-05-26T06:15:05.570Z,15.92
2019-05-26T06:15:46.124Z,15.94
2019-05-26T06:16:26.687Z,15.86
2019-05-26T06:17:10.408Z,15.91
2019-05-26T06:17:47.879Z,15.97
2019-05-26T06:18:28.444Z,15.94
2019-05-26T06:19:09.023Z,16.04
2019-05-26T06:19:49.612Z,16.01
2019-05-26T06:20:30.204Z,16.01
2019-05-26T06:21:10.845Z,16.08
2019-05-26T06:21:51.480Z,16.04
2019-05-26T06:22:32.031Z,16.2
2019-05-26T06:23:12.606Z,16.29
2019-05-26T06:23:53.212Z,16.39
2019-05-26T06:24:33.787Z,16.6
2019-05-26T06:25:14.330Z,16.64
2019-05-26T06:25:54.905Z,16.74
2019-05-26T06:26:35.479Z,16.84
2019-05-26T06:27:16.070Z,16.89
2019-05-26T06:27:56.717Z,17.05
2019-05-26T06:28:37.268Z,17.14
2019-05-26T06:29:17.824Z,17.24
2019-05-26T06:29:59.335Z,17.22
2019-05-26T06:30:38.969Z,17.23
2019-05-26T06:31:19.589Z,17.34
2019-05-26T06:32:00.503Z,17.29
2019-05-26T06:32:40.696Z,17.24
2019-05-26T06:33:21.263Z,17.19
2019-05-26T06:34:01.846Z,17.31
2019-05-26T06:34:42.442Z,17.39
2019-05-26T06:35:23.011Z,17.44
2019-05-26T06:36:03.566Z,17.59
2019-05-26T06:36:44.131Z,17.54
2019-05-26T06:37:24.712Z,17.78
2019-05-26T06:38:05.305Z,17.89
2019-05-26T06:38:45.860Z,17.85
2019-05-26T06:39:26.429Z,18.01
2019-05-26T06:40:06.967Z,18.15
2019-05-26T06:40:47.551Z,18.18
2019-05-26T06:41:33.247Z,18.23
2019-05-26T06:42:12.220Z,18.43
2019-05-26T06:42:49.264Z,18.43
2019-05-26T06:43:29.822Z,18.43
2019-05-26T06:44:10.397Z,18.52
2019-05-26T06:44:53.765Z,18.52
2019-05-26T06:45:31.544Z,18.6
2019-05-26T06:46:12.122Z,18.68
2019-05-26T06:46:52.713Z,18.59
2019-05-26T06:47:33.288Z,18.7
2019-05-26T06:48:13.863Z,18.7
2019-05-26T06:48:54.436Z,18.73
2019-05-26T06:49:35.010Z,18.66
2019-05-26T06:50:15.578Z,18.62
2019-05-26T06:50:56.170Z,18.6
2019-05-26T06:51:36.733Z,18.59
2019-05-26T06:52:17.288Z,18.55
2019-05-26T06:52:57.926Z,18.66
2019-05-26T06:53:38.484Z,18.65
2019-05-26T06:54:19.061Z,18.73
2019-05-26T06:54:59.651Z,18.77
2019-05-26T06:55:40.248Z,18.77
2019-05-26T06:56:20.842Z,18.81
2019-05-26T06:57:01.430Z,18.77
2019-05-26T06:57:41.991Z,18.95
2019-05-26T06:58:22.553Z,18.86
2019-05-26T06:59:03.263Z,18.9
2019-05-26T06:59:43.753Z,19.04
2019-05-26T07:00:24.322Z,18.99
2019-05-26T07:01:04.904Z,18.89
2019-05-26T07:01:45.498Z,18.92
2019-05-26T07:02:26.189Z,18.9
2019-05-26T07:03:07.298Z,18.92
2019-05-26T07:03:47.891Z,18.77
2019-05-26T07:04:28.460Z,18.78
2019-05-26T07:05:09.042Z,18.75
2019-05-26T07:05:49.636Z,18.78
2019-05-26T07:06:30.229Z,18.68
2019-05-26T07:07:10.766Z,18.7
2019-05-26T07:07:51.343Z,18.84
2019-05-26T07:08:31.929Z,18.83
2019-05-26T07:09:12.494Z,18.88
2019-05-26T07:09:53.165Z,18.99
2019-05-26T07:10:33.687Z,18.99
2019-05-26T07:11:14.303Z,19.09
2019-05-26T07:11:59.797Z,19.16
2019-05-26T07:12:35.494Z,19.21
2019-05-26T07:13:16.077Z,19.3
2019-05-26T07:13:56.690Z,19.4
2019-05-26T07:14:37.255Z,19.4
2019-05-26T07:15:17.838Z,19.49
2019-05-26T07:15:58.401Z,19.49
2019-05-26T07:16:39.048Z,19.51
2019-05-26T07:17:20.606Z,19.49
2019-05-26T07:18:00.126Z,19.51
2019-05-26T07:18:40.718Z,19.48
2019-05-26T07:19:21.292Z,19.58
2019-05-26T07:20:01.854Z,19.64
2019-05-26T07:20:42.436Z,19.69
2019-05-26T07:21:23.013Z,19.64
2019-05-26T07:22:03.580Z,19.74
2019-05-26T07:22:44.149Z,19.79
2019-05-26T07:23:24.751Z,19.77
2019-05-26T07:24:05.335Z,19.76
2019-05-26T07:24:45.903Z,19.74
2019-05-26T07:25:26.561Z,19.74
2019-05-26T07:26:07.113Z,19.7
2019-05-26T07:26:47.680Z,19.7
2019-05-26T07:27:28.324Z,19.63
2019-05-26T07:28:09.316Z,19.73
2019-05-26T07:28:49.903Z,19.73
2019-05-26T07:29:30.513Z,19.62
2019-05-26T07:30:11.153Z,19.66
2019-05-26T07:30:51.754Z,19.67
2019-05-26T07:31:32.380Z,19.69
2019-05-26T07:32:13.012Z,19.67
2019-05-26T07:32:53.669Z,19.64
2019-05-26T07:33:34.167Z,19.59
2019-05-26T07:34:14.781Z,19.51
2019-05-26T07:34:55.347Z,19.41
2019-05-26T07:35:35.947Z,19.48
2019-05-26T07:36:16.519Z,19.41
2019-05-26T07:36:57.120Z,19.41
2019-05-26T07:37:37.698Z,19.36
2019-05-26T07:38:18.241Z,19.15
2019-05-26T07:38:58.825Z,19.14
2019-05-26T07:39:39.392Z,19.11
2019-05-26T07:40:20.010Z,19.02
2019-05-26T07:41:00.580Z,19.04
2019-05-26T07:41:41.199Z,19.11
2019-05-26T07:42:21.805Z,19.08
2019-05-26T07:43:02.386Z,19.09
2019-05-26T07:43:42.945Z,19.09
2019-05-26T07:44:23.550Z,19.16
2019-05-26T07:45:04.101Z,19.08
2019-05-26T07:45:44.698Z,19.11
2019-05-26T07:46:25.252Z,19.11
2019-05-26T07:47:05.829Z,19.16
2019-05-26T07:47:46.409Z,19.14
2019-05-26T07:48:26.988Z,19.18
2019-05-26T07:49:07.582Z,18.99
2019-05-26T07:49:48.173Z,19.07
2019-05-26T07:50:28.749Z,19.02
2019-05-26T07:51:09.324Z,19.07
2019-05-26T07:51:49.924Z,19.07
2019-05-26T07:52:30.524Z,19
2019-05-26T07:53:11.122Z,19.08
2019-05-26T07:53:51.706Z,19.08
2019-05-26T07:54:32.261Z,19.09
2019-05-26T07:55:12.846Z,19.08
2019-05-26T07:55:53.494Z,19
2019-05-26T07:56:34.039Z,19.02
2019-05-26T07:57:14.637Z,19.08
2019-05-26T07:57:55.222Z,19.04
2019-05-26T07:58:35.798Z,19.04
2019-05-26T07:59:16.376Z,19.09
2019-05-26T07:59:56.951Z,19.11
2019-05-26T08:00:37.522Z,19.14
2019-05-26T08:01:18.104Z,19.14
2019-05-26T08:01:58.679Z,19.21
2019-05-26T08:02:39.261Z,19.19
2019-05-26T08:03:19.823Z,19.22
2019-05-26T08:04:00.392Z,19.18
2019-05-26T08:04:41.756Z,19.24
2019-05-26T08:05:22.898Z,19.21
2019-05-26T08:06:03.759Z,19.21
2019-05-26T08:06:44.854Z,19.16
2019-05-26T08:07:25.535Z,19.16
2019-05-26T08:08:12.451Z,19.21
2019-05-26T08:08:47.064Z,19.08
2019-05-26T08:09:27.630Z,19.18
2019-05-26T08:10:08.205Z,19
2019-05-26T08:10:48.803Z,19.15
2019-05-26T08:11:29.381Z,19.18
2019-05-26T08:12:24.845Z,19.22
2019-05-26T08:12:50.624Z,19.27
2019-05-26T08:13:31.806Z,19.29
2019-05-26T08:14:12.464Z,19.29
2019-05-26T08:14:53.095Z,19.3
2019-05-26T08:15:34.228Z,19.26
2019-05-26T08:16:15.446Z,19.24
2019-05-26T08:16:56.654Z,19.14
2019-05-26T08:17:37.744Z,19.15
2019-05-26T08:18:18.307Z,19.02
2019-05-26T08:18:58.912Z,19.12
2019-05-26T08:19:39.800Z,19
2019-05-26T08:20:20.263Z,18.99
2019-05-26T08:21:00.882Z,18.89
2019-05-26T08:21:41.463Z,18.96
2019-05-26T08:22:22.179Z,18.9
2019-05-26T08:23:02.868Z,18.92
2019-05-26T08:23:43.747Z,18.83
2019-05-26T08:24:25.102Z,18.89
2019-05-26T08:25:05.737Z,18.86
2019-05-26T08:25:46.293Z,18.9
2019-05-26T08:26:26.987Z,18.95
2019-05-26T08:27:08.350Z,18.93
2019-05-26T08:27:49.250Z,19.02
2019-05-26T08:28:29.941Z,18.98
2019-05-26T08:29:11.090Z,19.02
2019-05-26T08:29:51.760Z,19.12
2019-05-26T08:30:32.954Z,19.14
2019-05-26T08:31:13.647Z,19.15
2019-05-26T08:31:54.210Z,19.02
2019-05-26T08:32:34.773Z,19.14
2019-05-26T08:33:15.371Z,19.16
2019-05-26T08:33:55.998Z,19.27
2019-05-26T08:34:36.570Z,19.16
2019-05-26T08:35:17.166Z,19.15
2019-05-26T08:35:57.881Z,19.12
2019-05-26T08:36:38.483Z,19.14
2019-05-26T08:37:19.115Z,19.21
2019-05-26T08:37:59.760Z,19.12
2019-05-26T08:38:40.329Z,19.19
2019-05-26T08:39:21.038Z,19.21
2019-05-26T08:40:01.630Z,19.19
2019-05-26T08:40:42.179Z,19.19
2019-05-26T08:41:22.744Z,19.24
2019-05-26T08:42:03.344Z,19.37
2019-05-26T08:42:44.786Z,19.34
2019-05-26T08:43:24.540Z,19.37
2019-05-26T08:44:05.199Z,19.34
2019-05-26T08:44:45.837Z,19.36
2019-05-26T08:45:26.426Z,19.39
2019-05-26T08:46:07.022Z,19.33
2019-05-26T08:46:47.598Z,19.39
2019-05-26T08:47:28.189Z,19.34
2019-05-26T08:48:08.788Z,19.31
2019-05-26T08:48:49.361Z,19.33
2019-05-26T08:49:29.916Z,19.4
2019-05-26T08:50:10.478Z,19.33